createdAt,value
2022-10-21T00:02:46.513Z,7.53
2022-10-21T00:05:50.018Z,6.32
2022-10-21T00:08:52.531Z,7.07
2022-10-21T00:11:55.037Z,7.30
2022-10-21T00:14:58.865Z,6.95
2022-10-21T00:18:01.370Z,7.13
2022-10-21T00:21:06.786Z,7.22
2022-10-21T00:24:09.464Z,7.78
2022-10-21T00:27:11.957Z,8.18
2022-10-21T00:30:15.768Z,7.53
2022-10-21T00:33:18.333Z,8.27
2022-10-21T00:36:20.822Z,6.93
2022-10-21T00:39:23.304Z,7.65
2022-10-21T00:42:33.674Z,7.35
2022-10-21T00:45:37.463Z,8.30
2022-10-21T00:48:43.994Z,7.57
2022-10-21T00:51:50.578Z,9.35
2022-10-21T00:54:56.211Z,7.85
2022-10-21T00:57:59.015Z,8.60
2022-10-21T01:01:05.816Z,8.13
2022-10-21T01:04:08.354Z,7.95
2022-10-21T01:07:11.834Z,8.40
2022-10-21T01:10:14.310Z,8.50
2022-10-21T01:13:26.426Z,8.60
2022-10-21T01:16:37.672Z,9.20
2022-10-21T01:19:58.400Z,9.07
2022-10-21T01:23:35.491Z,8.88
2022-10-21T01:26:56.338Z,8.05
2022-10-21T01:30:08.612Z,8.95
2022-10-21T01:33:36.579Z,8.75
2022-10-21T01:36:47.827Z,9.25
2022-10-21T01:39:55.127Z,8.43
2022-10-21T01:43:00.688Z,8.75
2022-10-21T01:46:07.753Z,8.55
2022-10-21T01:49:18.846Z,9.30
2022-10-21T01:52:22.105Z,9.67
2022-10-21T01:55:29.964Z,8.77
2022-10-21T01:58:35.894Z,8.82
2022-10-21T02:01:39.997Z,8.40
2022-10-21T02:04:46.375Z,9.13
2022-10-21T02:07:50.166Z,9.13
2022-10-21T02:10:58.229Z,10.15
2022-10-21T02:14:05.190Z,9.75
2022-10-21T02:17:11.092Z,10.23
2022-10-21T02:20:18.639Z,9.13
2022-10-21T02:23:26.367Z,9.77
2022-10-21T02:26:29.584Z,9.55
2022-10-21T02:29:36.789Z,11.15
2022-10-21T02:32:49.113Z,10.02
2022-10-21T02:36:08.237Z,8.77
2022-10-21T02:39:17.619Z,9.45
2022-10-21T02:42:25.120Z,10.05
2022-10-21T02:45:28.547Z,10.52
2022-10-21T02:48:34.132Z,9.38
2022-10-21T02:51:37.930Z,10.40
2022-10-21T02:54:40.413Z,9.90
2022-10-21T02:57:42.889Z,9.63
2022-10-21T03:00:45.399Z,9.43
2022-10-21T03:03:47.992Z,9.88
2022-10-21T03:06:51.849Z,10.10
2022-10-21T03:09:54.304Z,9.48
2022-10-21T03:12:56.789Z,10.13
2022-10-21T03:15:59.249Z,10.65
2022-10-21T03:19:01.704Z,10.23
2022-10-21T03:22:05.595Z,11.02
2022-10-21T03:25:09.079Z,9.55
2022-10-21T03:28:11.597Z,10.68
2022-10-21T03:31:14.084Z,10.98
2022-10-21T03:34:16.767Z,10.88
2022-10-21T03:37:20.668Z,11.32
2022-10-21T03:40:24.336Z,11.65
2022-10-21T03:43:26.782Z,10.55
2022-10-21T03:46:29.291Z,11.57
2022-10-21T03:49:31.806Z,10.93
2022-10-21T03:52:35.813Z,11.98
2022-10-21T03:55:38.658Z,10.68
2022-10-21T03:58:41.241Z,11.65
2022-10-21T04:01:43.824Z,11.43
2022-10-21T04:04:46.348Z,11.45
2022-10-21T04:07:53.027Z,12.55
2022-10-21T04:10:58.089Z,12.15
2022-10-21T04:14:00.623Z,11.65
2022-10-21T04:17:07.558Z,12.18
2022-10-21T04:20:12.112Z,11.65
2022-10-21T04:23:15.908Z,10.90
2022-10-21T04:26:18.728Z,12.85
2022-10-21T04:29:21.392Z,12.45
2022-10-21T04:32:23.876Z,13.57
2022-10-21T04:35:26.403Z,13.05
2022-10-21T04:38:30.504Z,12.88
2022-10-21T04:41:33.011Z,12.70
2022-10-21T04:44:35.482Z,12.98
2022-10-21T04:47:38.158Z,14.52
2022-10-21T04:50:40.949Z,14.07
2022-10-21T04:53:44.775Z,14.10
2022-10-21T04:56:47.259Z,13.48
2022-10-21T04:59:49.726Z,13.32
2022-10-21T05:02:52.184Z,14.40
2022-10-21T05:05:54.891Z,13.52
2022-10-21T05:08:58.780Z,14.27
2022-10-21T05:12:01.444Z,13.55
2022-10-21T05:15:04.092Z,15.20
2022-10-21T05:18:06.710Z,14.70
2022-10-21T05:21:09.200Z,14.18
2022-10-21T05:24:13.006Z,14.02
2022-10-21T05:27:15.530Z,13.75
2022-10-21T05:30:18.166Z,13.73
2022-10-21T05:33:20.651Z,13.75
2022-10-21T05:36:24.091Z,14.45
2022-10-21T05:39:28.477Z,14.77
2022-10-21T05:42:30.953Z,15.07
2022-10-21T05:45:33.418Z,13.75
2022-10-21T05:48:36.132Z,14.27
2022-10-21T05:51:38.652Z,14.18
2022-10-21T05:54:42.473Z,14.93
2022-10-21T05:57:44.970Z,15.23
2022-10-21T06:00:48.844Z,14.80
2022-10-21T06:03:51.811Z,14.23
2022-10-21T06:06:54.344Z,15.23
2022-10-21T06:09:58.158Z,15.18
2022-10-21T06:13:00.616Z,15.32
2022-10-21T06:19:06.415Z,14.05
2022-10-21T06:22:08.928Z,14.60
2022-10-21T06:25:12.846Z,14.77
2022-10-21T06:28:15.331Z,16.33
2022-10-21T06:31:20.651Z,15.10
2022-10-21T06:34:23.259Z,16.05
2022-10-21T06:37:25.869Z,15.82
2022-10-21T06:40:29.780Z,14.88
2022-10-21T06:43:32.475Z,16.45
2022-10-21T06:46:35.186Z,16.25
2022-10-21T06:49:37.653Z,15.23
2022-10-21T06:52:40.374Z,15.18
2022-10-21T06:55:44.151Z,15.05
2022-10-21T06:58:48.231Z,15.32
2022-10-21T07:02:06.104Z,14.88
2022-10-21T07:05:08.941Z,14.85
2022-10-21T07:08:12.765Z,14.55
2022-10-21T07:11:17.450Z,14.02
2022-10-21T07:14:19.949Z,15.10
2022-10-21T07:17:22.703Z,13.20
2022-10-21T07:20:25.182Z,13.88
2022-10-21T07:23:27.665Z,14.20
2022-10-21T07:26:34.915Z,13.82
2022-10-21T07:29:37.388Z,13.73
2022-10-21T07:32:39.850Z,13.07
2022-10-21T07:35:42.400Z,13.35
2022-10-21T07:38:46.647Z,13.57
2022-10-21T07:41:52.267Z,11.95
2022-10-21T07:44:59.360Z,11.20
2022-10-21T07:48:01.821Z,11.10
2022-10-21T07:51:06.295Z,10.82
2022-10-21T07:54:09.881Z,11.57
2022-10-21T07:57:13.682Z,10.68
2022-10-21T08:00:16.200Z,11.57
2022-10-21T08:03:18.665Z,10.88
2022-10-21T08:06:21.185Z,11.10
2022-10-21T08:09:23.663Z,10.55
2022-10-21T08:12:27.672Z,10.98
2022-10-21T08:15:30.126Z,10.23
2022-10-21T08:18:32.597Z,10.75
2022-10-21T08:21:35.949Z,9.93
2022-10-21T08:24:41.419Z,9.55
2022-10-21T08:27:46.221Z,9.75
2022-10-21T08:30:48.829Z,9.18
2022-10-21T08:33:51.351Z,10.57
2022-10-21T08:36:53.899Z,10.45
2022-10-21T08:39:56.347Z,9.43
2022-10-21T08:43:08.397Z,9.10
2022-10-21T08:46:16.813Z,8.77
2022-10-21T08:49:27.369Z,9.85
2022-10-21T08:52:40.888Z,8.82
2022-10-21T08:55:45.953Z,10.35
2022-10-21T08:58:52.524Z,10.38
2022-10-21T09:02:04.085Z,9.50
2022-10-21T09:05:27.365Z,9.50
2022-10-21T09:08:36.572Z,9.93
2022-10-21T09:11:53.032Z,9.45
2022-10-21T09:15:10.476Z,9.52
2022-10-21T09:18:26.766Z,10.07
2022-10-21T09:21:41.056Z,10.70
2022-10-21T09:24:51.396Z,10.38
2022-10-21T09:27:56.823Z,11.63
2022-10-21T09:31:03.549Z,18.13
2022-10-21T09:34:16.213Z,10.05
2022-10-21T09:37:25.273Z,12.82
2022-10-21T09:40:29.471Z,10.50
2022-10-21T09:43:32.268Z,9.65
2022-10-21T09:46:36.054Z,10.07
2022-10-21T09:50:05.758Z,8.50
2022-10-21T09:53:07.307Z,8.73
2022-10-21T09:56:15.657Z,9.80
2022-10-21T09:59:22.634Z,7.95
2022-10-21T10:02:36.422Z,8.50
2022-10-21T10:05:43.914Z,8.55
2022-10-21T10:08:48.198Z,8.23
2022-10-21T10:11:54.653Z,8.27
2022-10-21T10:14:57.505Z,7.90
2022-10-21T10:18:01.472Z,8.55
2022-10-21T10:21:06.308Z,7.88
2022-10-21T10:24:17.909Z,8.07
2022-10-21T10:27:26.534Z,7.22
2022-10-21T10:30:38.049Z,7.75
2022-10-21T10:33:54.205Z,7.10
2022-10-21T10:37:04.063Z,7.10
2022-10-21T10:40:10.453Z,7.05
2022-10-21T10:43:16.936Z,6.72
2022-10-21T10:46:25.810Z,6.70
2022-10-21T10:49:37.609Z,7.15
2022-10-21T10:55:45.128Z,7.45
2022-10-21T10:58:52.241Z,7.10
2022-10-21T11:02:01.228Z,7.18
2022-10-21T11:05:17.661Z,7.05
2022-10-21T11:08:26.724Z,7.18
2022-10-21T11:11:37.148Z,8.68
2022-10-21T11:14:39.630Z,7.40
2022-10-21T11:17:50.587Z,8.30
2022-10-21T11:21:06.161Z,8.70
2022-10-21T11:24:35.461Z,8.30
2022-10-21T11:27:50.249Z,9.02
2022-10-21T11:31:07.798Z,8.00
2022-10-21T11:34:19.645Z,8.68
2022-10-21T11:40:36.219Z,8.40
2022-10-21T11:43:46.310Z,9.40
2022-10-21T11:46:59.180Z,9.13
2022-10-21T11:50:13.331Z,9.57
2022-10-21T11:53:33.876Z,9.07
2022-10-21T11:56:45.951Z,9.48
2022-10-21T12:00:02.653Z,8.65
2022-10-21T12:03:28.297Z,8.82
2022-10-21T12:06:38.393Z,9.60
2022-10-21T12:09:49.249Z,8.40
2022-10-21T12:12:53.045Z,8.65
2022-10-21T12:15:59.992Z,8.63
2022-10-21T12:19:06.989Z,8.82
2022-10-21T12:22:11.862Z,9.68
2022-10-21T12:25:29.659Z,8.60
2022-10-21T12:28:35.351Z,8.35
2022-10-21T12:31:45.681Z,9.00
2022-10-21T12:34:49.556Z,8.40
2022-10-21T12:38:21.307Z,8.10
2022-10-21T12:41:31.847Z,7.65
2022-10-21T12:44:34.879Z,7.93
2022-10-21T12:47:44.480Z,8.73
2022-10-21T12:50:58.288Z,8.85
2022-10-21T12:54:08.760Z,7.70
2022-10-21T12:57:25.218Z,8.75
2022-10-21T13:00:52.796Z,8.18
2022-10-21T13:03:56.592Z,7.82
2022-10-21T13:07:00.292Z,8.80
2022-10-21T13:10:36.104Z,8.93
2022-10-21T13:13:41.418Z,7.72
2022-10-21T13:16:44.081Z,8.25
2022-10-21T13:19:46.617Z,8.63
2022-10-21T13:22:50.581Z,8.38
2022-10-21T13:26:06.209Z,9.15
2022-10-21T13:29:35.588Z,8.30
2022-10-21T13:32:39.181Z,8.15
2022-10-21T13:35:45.751Z,7.70
2022-10-21T13:38:52.002Z,7.40
2022-10-21T13:42:03.784Z,8.13
2022-10-21T13:45:18.699Z,9.32
2022-10-21T13:48:25.536Z,7.72
2022-10-21T13:51:30.123Z,8.50
2022-10-21T13:54:36.008Z,7.90
2022-10-21T13:57:39.530Z,8.52
2022-10-21T14:00:43.678Z,8.10
2022-10-21T14:03:46.777Z,8.40
2022-10-21T14:06:52.846Z,8.85
2022-10-21T14:09:59.102Z,8.50
2022-10-21T14:13:01.651Z,7.85
2022-10-21T14:16:07.489Z,7.88
2022-10-21T14:19:15.467Z,7.75
2022-10-21T14:22:20.098Z,8.18
2022-10-21T14:25:22.729Z,8.00
2022-10-21T14:28:25.449Z,8.25
2022-10-21T14:31:30.075Z,7.90
2022-10-21T14:34:34.692Z,7.35
2022-10-21T14:37:43.013Z,7.53
2022-10-21T14:40:45.544Z,8.52
2022-10-21T14:43:50.374Z,7.75
2022-10-21T14:46:55.236Z,8.25
2022-10-21T14:49:59.669Z,8.45
2022-10-21T14:53:02.464Z,7.45
2022-10-21T14:56:07.733Z,8.20
2022-10-21T14:59:20.410Z,8.02
2022-10-21T15:02:28.391Z,7.88
2022-10-21T15:05:35.349Z,7.78
2022-10-21T15:08:41.504Z,8.35
2022-10-21T15:11:45.586Z,8.70
2022-10-21T15:14:48.053Z,9.00
2022-10-21T15:18:02.802Z,8.23
2022-10-21T15:21:10.628Z,8.63
2022-10-21T15:24:20.144Z,8.35
2022-10-21T15:27:28.877Z,8.63
2022-10-21T15:30:35.311Z,7.78
2022-10-21T15:33:39.097Z,8.25
2022-10-21T15:36:41.900Z,7.32
2022-10-21T15:39:45.482Z,9.60
2022-10-21T15:42:48.988Z,8.27
2022-10-21T15:45:51.526Z,8.77
2022-10-21T15:48:55.547Z,8.48
2022-10-21T15:51:58.033Z,8.70
2022-10-21T15:55:00.827Z,7.75
2022-10-21T15:58:03.303Z,8.45
2022-10-21T16:01:10.634Z,7.28
2022-10-21T16:04:14.645Z,9.77
2022-10-21T16:07:20.776Z,8.90
2022-10-21T16:10:25.711Z,9.48
2022-10-21T16:13:28.185Z,9.15
2022-10-21T16:16:30.910Z,9.68
2022-10-21T16:19:34.721Z,9.70
2022-10-21T16:22:37.428Z,9.57
2022-10-21T16:25:40.087Z,9.23
2022-10-21T16:28:42.952Z,8.73
2022-10-21T16:31:45.600Z,8.20
2022-10-21T16:34:49.372Z,7.88
2022-10-21T16:37:52.381Z,8.20
2022-10-21T16:40:55.060Z,12.05
2022-10-21T16:43:57.526Z,10.30
2022-10-21T16:47:00.045Z,12.52
2022-10-21T16:50:05.442Z,10.27
2022-10-21T16:53:08.667Z,9.73
2022-10-21T16:56:11.172Z,11.68
2022-10-21T16:59:13.642Z,12.57
2022-10-21T17:02:18.400Z,11.85
2022-10-21T17:05:22.298Z,10.85
2022-10-21T17:08:24.788Z,8.70
2022-10-21T17:11:32.969Z,9.65
2022-10-21T17:17:43.077Z,15.77
2022-10-21T17:20:46.895Z,14.98
2022-10-21T17:23:49.947Z,12.45
2022-10-21T17:26:52.417Z,11.05
2022-10-21T17:29:54.863Z,9.93
2022-10-21T17:32:57.389Z,9.25
2022-10-21T17:36:01.207Z,7.88
2022-10-21T17:39:04.151Z,9.02
2022-10-21T17:42:06.663Z,7.57
2022-10-21T17:45:14.542Z,9.18
2022-10-21T17:48:17.082Z,6.88
2022-10-21T17:51:21.546Z,8.13
2022-10-21T17:54:27.865Z,7.43
2022-10-21T17:57:33.075Z,7.90
2022-10-21T18:00:35.739Z,8.40
2022-10-21T18:03:38.782Z,7.90
2022-10-21T18:06:42.762Z,8.00
2022-10-21T18:09:45.221Z,8.02
2022-10-21T18:12:47.665Z,7.32
2022-10-21T18:15:51.176Z,7.80
2022-10-21T18:18:57.258Z,7.80
2022-10-21T18:22:04.423Z,7.72
2022-10-21T18:25:07.863Z,7.22
2022-10-21T18:28:10.899Z,7.35
2022-10-21T18:31:13.484Z,7.03
2022-10-21T18:34:16.241Z,7.38
2022-10-21T18:37:20.634Z,7.70
2022-10-21T18:40:23.147Z,7.75
2022-10-21T18:43:25.592Z,6.72
2022-10-21T18:46:28.740Z,8.18
2022-10-21T18:49:31.202Z,8.10
2022-10-21T18:52:35.224Z,8.38
2022-10-21T18:55:40.459Z,8.57
2022-10-21T18:58:43.855Z,8.57
2022-10-21T19:01:46.402Z,8.25
2022-10-21T19:04:49.287Z,9.48
2022-10-21T19:07:54.283Z,7.82
2022-10-21T19:10:56.753Z,9.70
2022-10-21T19:13:59.241Z,8.77
2022-10-21T19:17:01.864Z,9.13
2022-10-21T19:20:04.725Z,9.95
2022-10-21T19:23:08.690Z,8.80
2022-10-21T19:26:11.962Z,9.68
2022-10-21T19:29:17.247Z,9.57
2022-10-21T19:32:19.700Z,9.90
2022-10-21T19:35:22.158Z,9.82
2022-10-21T19:38:43.215Z,10.73
2022-10-21T19:41:46.631Z,11.30
2022-10-21T19:44:49.107Z,11.77
2022-10-21T19:47:51.564Z,12.70
2022-10-21T19:50:58.784Z,11.30
2022-10-21T19:54:04.674Z,12.90
2022-10-21T19:57:07.141Z,12.60
2022-10-21T20:00:11.224Z,13.20
2022-10-21T20:03:13.696Z,13.82
2022-10-21T20:06:18.512Z,14.95
2022-10-21T20:09:22.328Z,14.82
2022-10-21T20:12:24.871Z,13.75
2022-10-21T20:15:27.539Z,14.18
2022-10-21T20:18:30.829Z,15.13
2022-10-21T20:21:35.253Z,15.13
2022-10-21T20:24:40.404Z,14.02
2022-10-21T20:27:45.592Z,14.85
2022-10-21T20:30:56.361Z,15.43
2022-10-21T20:33:59.571Z,13.73
2022-10-21T20:37:02.081Z,15.85
2022-10-21T20:40:06.994Z,14.82
2022-10-21T20:43:09.540Z,14.95
2022-10-21T20:46:13.891Z,16.48
2022-10-21T20:49:16.437Z,15.95
2022-10-21T20:52:18.912Z,16.77
2022-10-21T20:55:22.811Z,18.45
2022-10-21T20:58:25.306Z,19.63
2022-10-21T21:01:30.897Z,19.83
2022-10-21T21:04:33.446Z,19.63
2022-10-21T21:07:37.334Z,20.83
2022-10-21T21:10:41.470Z,20.63
2022-10-21T21:13:44.783Z,23.55
2022-10-21T21:16:47.304Z,24.00
2022-10-21T21:19:49.757Z,23.95
2022-10-21T21:22:52.211Z,23.75
2022-10-21T21:25:56.059Z,25.95
2022-10-21T21:28:58.991Z,24.20
2022-10-21T21:32:01.499Z,23.90
2022-10-21T21:35:06.075Z,27.55
2022-10-21T21:38:09.717Z,25.30
2022-10-21T21:41:16.482Z,26.27
2022-10-21T21:44:18.988Z,26.13
2022-10-21T21:47:21.476Z,27.95
2022-10-21T21:50:26.720Z,27.33
2022-10-21T21:53:29.261Z,26.77
2022-10-21T21:56:33.050Z,27.00
2022-10-21T21:59:35.540Z,27.88
2022-10-21T22:02:38.053Z,26.02
2022-10-21T22:05:57.342Z,28.30
2022-10-21T22:09:04.771Z,26.85
2022-10-21T22:12:14.410Z,27.08
2022-10-21T22:18:56.717Z,27.08
2022-10-21T22:23:02.878Z,28.30
2022-10-21T22:27:56.541Z,28.23
2022-10-21T22:54:11.680Z,28.52
2022-10-21T23:06:35.676Z,27.65
2022-10-21T23:10:02.795Z,29.27
2022-10-21T23:15:13.063Z,27.77
2022-10-21T23:17:43.627Z,29.20
2022-10-21T23:33:37.544Z,28.98
2022-10-21T23:42:22.251Z,28.38
2022-10-21T23:46:04.114Z,28.88
2022-10-21T23:57:44.666Z,25.63
